sensor_id;sensor_type;location;lat;lon;timestamp;P1;durP1;ratioP1;P2;durP2;ratioP2
17059;SDS011;8646;49.716;9.266;2023-04-08T00:02:08;7.27;;;4.60;;
17059;SDS011;8646;49.716;9.266;2023-04-08T00:05:11;9.40;;;5.23;;
17059;SDS011;8646;49.716;9.266;2023-04-08T00:08:14;7.87;;;5.10;;
17059;SDS011;8646;49.716;9.266;2023-04-08T00:11:16;7.63;;;4.83;;
17059;SDS011;8646;49.716;9.266;2023-04-08T00:14:19;6.93;;;5.13;;
17059;SDS011;8646;49.716;9.266;2023-04-08T00:17:23;10.10;;;5.50;;
17059;SDS011;8646;49.716;9.266;2023-04-08T00:20:27;9.33;;;5.57;;
17059;SDS011;8646;49.716;9.266;2023-04-08T00:23:30;10.17;;;6.03;;
17059;SDS011;8646;49.716;9.266;2023-04-08T00:26:32;14.17;;;6.57;;
17059;SDS011;8646;49.716;9.266;2023-04-08T00:29:35;8.90;;;5.77;;
17059;SDS011;8646;49.716;9.266;2023-04-08T00:32:39;8.57;;;5.20;;
17059;SDS011;8646;49.716;9.266;2023-04-08T00:35:42;9.07;;;5.30;;
17059;SDS011;8646;49.716;9.266;2023-04-08T00:38:46;8.30;;;4.90;;
17059;SDS011;8646;49.716;9.266;2023-04-08T00:41:49;9.80;;;5.43;;
17059;SDS011;8646;49.716;9.266;2023-04-08T00:44:52;12.33;;;5.97;;
17059;SDS011;8646;49.716;9.266;2023-04-08T00:47:56;12.50;;;5.73;;
17059;SDS011;8646;49.716;9.266;2023-04-08T00:50:59;8.37;;;5.00;;
17059;SDS011;8646;49.716;9.266;2023-04-08T00:54:02;10.27;;;5.47;;
17059;SDS011;8646;49.716;9.266;2023-04-08T00:57:05;10.57;;;5.73;;
17059;SDS011;8646;49.716;9.266;2023-04-08T01:00:09;12.03;;;5.70;;
17059;SDS011;8646;49.716;9.266;2023-04-08T01:03:15;9.50;;;5.93;;
17059;SDS011;8646;49.716;9.266;2023-04-08T01:06:27;9.20;;;5.53;;
17059;SDS011;8646;49.716;9.266;2023-04-08T01:09:34;9.63;;;5.30;;
17059;SDS011;8646;49.716;9.266;2023-04-08T01:12:41;8.53;;;5.53;;
17059;SDS011;8646;49.716;9.266;2023-04-08T01:15:49;9.07;;;5.93;;
17059;SDS011;8646;49.716;9.266;2023-04-08T01:18:54;9.93;;;5.97;;
17059;SDS011;8646;49.716;9.266;2023-04-08T01:22:02;9.37;;;6.20;;
17059;SDS011;8646;49.716;9.266;2023-04-08T01:25:14;10.20;;;6.37;;
17059;SDS011;8646;49.716;9.266;2023-04-08T01:28:22;8.97;;;6.27;;
17059;SDS011;8646;49.716;9.266;2023-04-08T01:31:26;9.83;;;6.00;;
17059;SDS011;8646;49.716;9.266;2023-04-08T01:34:30;10.60;;;6.63;;
17059;SDS011;8646;49.716;9.266;2023-04-08T01:37:35;10.60;;;6.30;;
17059;SDS011;8646;49.716;9.266;2023-04-08T01:40:40;9.67;;;6.13;;
17059;SDS011;8646;49.716;9.266;2023-04-08T01:43:45;10.07;;;6.30;;
17059;SDS011;8646;49.716;9.266;2023-04-08T01:46:49;8.77;;;6.20;;
17059;SDS011;8646;49.716;9.266;2023-04-08T01:49:54;9.57;;;6.40;;
17059;SDS011;8646;49.716;9.266;2023-04-08T01:52:59;9.23;;;6.43;;
17059;SDS011;8646;49.716;9.266;2023-04-08T01:56:04;12.07;;;6.00;;
17059;SDS011;8646;49.716;9.266;2023-04-08T01:59:10;8.47;;;6.13;;
17059;SDS011;8646;49.716;9.266;2023-04-08T02:02:17;10.77;;;6.73;;
17059;SDS011;8646;49.716;9.266;2023-04-08T02:05:22;10.90;;;7.00;;
17059;SDS011;8646;49.716;9.266;2023-04-08T02:08:25;11.83;;;6.63;;
17059;SDS011;8646;49.716;9.266;2023-04-08T02:11:28;11.00;;;6.47;;
17059;SDS011;8646;49.716;9.266;2023-04-08T02:14:33;11.37;;;6.90;;
17059;SDS011;8646;49.716;9.266;2023-04-08T02:17:38;11.37;;;6.97;;
17059;SDS011;8646;49.716;9.266;2023-04-08T02:20:46;12.10;;;7.10;;
17059;SDS011;8646;49.716;9.266;2023-04-08T02:23:53;13.37;;;7.50;;
17059;SDS011;8646;49.716;9.266;2023-04-08T02:26:58;10.00;;;6.70;;
17059;SDS011;8646;49.716;9.266;2023-04-08T02:30:03;13.03;;;7.57;;
17059;SDS011;8646;49.716;9.266;2023-04-08T02:33:08;10.90;;;7.03;;
17059;SDS011;8646;49.716;9.266;2023-04-08T02:36:13;11.47;;;7.40;;
17059;SDS011;8646;49.716;9.266;2023-04-08T02:39:16;13.53;;;7.53;;
17059;SDS011;8646;49.716;9.266;2023-04-08T02:42:19;11.77;;;7.37;;
17059;SDS011;8646;49.716;9.266;2023-04-08T02:45:23;13.20;;;7.70;;
17059;SDS011;8646;49.716;9.266;2023-04-08T02:48:30;11.67;;;7.23;;
17059;SDS011;8646;49.716;9.266;2023-04-08T02:51:33;12.27;;;7.33;;
17059;SDS011;8646;49.716;9.266;2023-04-08T02:54:35;12.70;;;7.43;;
17059;SDS011;8646;49.716;9.266;2023-04-08T02:57:38;11.20;;;7.67;;
17059;SDS011;8646;49.716;9.266;2023-04-08T03:00:43;12.73;;;7.60;;
17059;SDS011;8646;49.716;9.266;2023-04-08T03:03:46;12.77;;;7.47;;
17059;SDS011;8646;49.716;9.266;2023-04-08T03:06:49;12.87;;;7.70;;
17059;SDS011;8646;49.716;9.266;2023-04-08T03:09:52;13.87;;;7.57;;
17059;SDS011;8646;49.716;9.266;2023-04-08T03:12:56;13.83;;;8.03;;
17059;SDS011;8646;49.716;9.266;2023-04-08T03:16:00;13.20;;;7.30;;
17059;SDS011;8646;49.716;9.266;2023-04-08T03:19:03;14.80;;;7.47;;
17059;SDS011;8646;49.716;9.266;2023-04-08T03:22:06;12.13;;;7.30;;
17059;SDS011;8646;49.716;9.266;2023-04-08T03:25:10;14.63;;;7.53;;
17059;SDS011;8646;49.716;9.266;2023-04-08T03:28:12;11.83;;;7.67;;
17059;SDS011;8646;49.716;9.266;2023-04-08T03:31:17;13.10;;;8.20;;
17059;SDS011;8646;49.716;9.266;2023-04-08T03:34:21;18.33;;;10.10;;
17059;SDS011;8646;49.716;9.266;2023-04-08T03:37:24;20.87;;;11.93;;
17059;SDS011;8646;49.716;9.266;2023-04-08T03:40:27;21.87;;;11.97;;
17059;SDS011;8646;49.716;9.266;2023-04-08T03:43:29;21.40;;;11.80;;
17059;SDS011;8646;49.716;9.266;2023-04-08T03:46:34;21.60;;;12.57;;
17059;SDS011;8646;49.716;9.266;2023-04-08T03:49:37;25.73;;;13.40;;
17059;SDS011;8646;49.716;9.266;2023-04-08T03:52:39;20.93;;;12.33;;
17059;SDS011;8646;49.716;9.266;2023-04-08T03:55:42;26.30;;;13.23;;
17059;SDS011;8646;49.716;9.266;2023-04-08T03:58:45;25.00;;;13.30;;
17059;SDS011;8646;49.716;9.266;2023-04-08T04:01:54;21.67;;;12.20;;
17059;SDS011;8646;49.716;9.266;2023-04-08T04:04:57;25.03;;;12.53;;
17059;SDS011;8646;49.716;9.266;2023-04-08T04:08:00;38.70;;;12.83;;
17059;SDS011;8646;49.716;9.266;2023-04-08T04:11:02;38.83;;;10.97;;
17059;SDS011;8646;49.716;9.266;2023-04-08T04:14:05;76.67;;;10.10;;
17059;SDS011;8646;49.716;9.266;2023-04-08T04:17:09;74.37;;;10.17;;
17059;SDS011;8646;49.716;9.266;2023-04-08T04:20:12;101.80;;;10.80;;
17059;SDS011;8646;49.716;9.266;2023-04-08T04:23:15;101.50;;;12.37;;
17059;SDS011;8646;49.716;9.266;2023-04-08T04:26:18;280.27;;;15.10;;
17059;SDS011;8646;49.716;9.266;2023-04-08T04:29:21;392.33;;;15.53;;
17059;SDS011;8646;49.716;9.266;2023-04-08T04:32:28;320.40;;;13.47;;
17059;SDS011;8646;49.716;9.266;2023-04-08T04:35:31;218.60;;;12.43;;
17059;SDS011;8646;49.716;9.266;2023-04-08T04:38:33;165.57;;;12.20;;
17059;SDS011;8646;49.716;9.266;2023-04-08T04:41:37;134.13;;;12.13;;
17059;SDS011;8646;49.716;9.266;2023-04-08T04:44:40;69.50;;;10.77;;
17059;SDS011;8646;49.716;9.266;2023-04-08T04:47:46;87.00;;;10.30;;
17059;SDS011;8646;49.716;9.266;2023-04-08T04:50:53;92.70;;;10.37;;
17059;SDS011;8646;49.716;9.266;2023-04-08T04:53:56;115.53;;;10.30;;
17059;SDS011;8646;49.716;9.266;2023-04-08T04:56:59;102.97;;;9.17;;
17059;SDS011;8646;49.716;9.266;2023-04-08T05:00:02;53.33;;;8.80;;
17059;SDS011;8646;49.716;9.266;2023-04-08T05:03:07;87.30;;;11.63;;
17059;SDS011;8646;49.716;9.266;2023-04-08T05:06:10;82.17;;;11.60;;
17059;SDS011;8646;49.716;9.266;2023-04-08T05:09:13;65.70;;;13.10;;
17059;SDS011;8646;49.716;9.266;2023-04-08T05:12:16;50.17;;;13.30;;
17059;SDS011;8646;49.716;9.266;2023-04-08T05:15:20;64.33;;;12.17;;
17059;SDS011;8646;49.716;9.266;2023-04-08T05:18:25;30.13;;;12.50;;
17059;SDS011;8646;49.716;9.266;2023-04-08T05:21:27;26.83;;;12.53;;
17059;SDS011;8646;49.716;9.266;2023-04-08T05:24:30;24.50;;;12.93;;
17059;SDS011;8646;49.716;9.266;2023-04-08T05:27:33;22.80;;;11.43;;
17059;SDS011;8646;49.716;9.266;2023-04-08T05:30:36;29.57;;;8.47;;
17059;SDS011;8646;49.716;9.266;2023-04-08T05:33:42;45.93;;;8.30;;
17059;SDS011;8646;49.716;9.266;2023-04-08T05:36:45;14.60;;;8.23;;
17059;SDS011;8646;49.716;9.266;2023-04-08T05:39:47;13.93;;;8.03;;
17059;SDS011;8646;49.716;9.266;2023-04-08T05:42:50;15.60;;;8.27;;
17059;SDS011;8646;49.716;9.266;2023-04-08T05:45:53;13.47;;;8.30;;
17059;SDS011;8646;49.716;9.266;2023-04-08T05:48:57;15.80;;;9.27;;
17059;SDS011;8646;49.716;9.266;2023-04-08T05:52:01;13.23;;;8.27;;
17059;SDS011;8646;49.716;9.266;2023-04-08T05:55:04;14.40;;;9.23;;
17059;SDS011;8646;49.716;9.266;2023-04-08T05:58:08;13.07;;;8.43;;
17059;SDS011;8646;49.716;9.266;2023-04-08T06:01:11;15.10;;;9.50;;
17059;SDS011;8646;49.716;9.266;2023-04-08T06:04:15;16.23;;;9.57;;
17059;SDS011;8646;49.716;9.266;2023-04-08T06:07:18;17.33;;;9.93;;
17059;SDS011;8646;49.716;9.266;2023-04-08T06:10:21;13.83;;;8.40;;
17059;SDS011;8646;49.716;9.266;2023-04-08T06:13:24;23.23;;;13.10;;
17059;SDS011;8646;49.716;9.266;2023-04-08T06:16:26;21.37;;;12.30;;
17059;SDS011;8646;49.716;9.266;2023-04-08T06:19:30;23.67;;;13.40;;
17059;SDS011;8646;49.716;9.266;2023-04-08T06:22:33;24.63;;;14.07;;
17059;SDS011;8646;49.716;9.266;2023-04-08T06:25:36;22.47;;;12.60;;
17059;SDS011;8646;49.716;9.266;2023-04-08T06:28:39;23.17;;;13.47;;
17059;SDS011;8646;49.716;9.266;2023-04-08T06:31:41;25.33;;;13.30;;
17059;SDS011;8646;49.716;9.266;2023-04-08T06:34:45;28.07;;;15.27;;
17059;SDS011;8646;49.716;9.266;2023-04-08T06:37:48;23.93;;;14.87;;
17059;SDS011;8646;49.716;9.266;2023-04-08T06:40:51;29.90;;;17.57;;
17059;SDS011;8646;49.716;9.266;2023-04-08T06:43:54;29.03;;;17.40;;
17059;SDS011;8646;49.716;9.266;2023-04-08T06:46:58;32.53;;;19.13;;
17059;SDS011;8646;49.716;9.266;2023-04-08T06:50:02;23.43;;;13.10;;
17059;SDS011;8646;49.716;9.266;2023-04-08T06:53:06;28.03;;;16.30;;
17059;SDS011;8646;49.716;9.266;2023-04-08T06:56:08;21.53;;;13.30;;
17059;SDS011;8646;49.716;9.266;2023-04-08T06:59:11;21.20;;;12.13;;
17059;SDS011;8646;49.716;9.266;2023-04-08T07:02:14;21.77;;;12.87;;
17059;SDS011;8646;49.716;9.266;2023-04-08T07:05:18;20.13;;;12.60;;
17059;SDS011;8646;49.716;9.266;2023-04-08T07:08:21;21.67;;;13.27;;
17059;SDS011;8646;49.716;9.266;2023-04-08T07:11:24;18.63;;;11.93;;
17059;SDS011;8646;49.716;9.266;2023-04-08T07:14:26;21.03;;;12.80;;
17059;SDS011;8646;49.716;9.266;2023-04-08T07:17:30;22.00;;;12.50;;
17059;SDS011;8646;49.716;9.266;2023-04-08T07:20:34;28.50;;;14.13;;
17059;SDS011;8646;49.716;9.266;2023-04-08T07:23:38;33.13;;;20.63;;
17059;SDS011;8646;49.716;9.266;2023-04-08T07:26:41;20.47;;;12.10;;
17059;SDS011;8646;49.716;9.266;2023-04-08T07:29:44;19.43;;;11.97;;
17059;SDS011;8646;49.716;9.266;2023-04-08T07:32:46;19.93;;;12.27;;
17059;SDS011;8646;49.716;9.266;2023-04-08T07:35:53;21.37;;;12.43;;
17059;SDS011;8646;49.716;9.266;2023-04-08T07:38:56;20.90;;;12.33;;
17059;SDS011;8646;49.716;9.266;2023-04-08T07:41:58;18.67;;;11.67;;
17059;SDS011;8646;49.716;9.266;2023-04-08T07:45:01;19.27;;;11.20;;
17059;SDS011;8646;49.716;9.266;2023-04-08T07:48:05;18.67;;;11.97;;
17059;SDS011;8646;49.716;9.266;2023-04-08T07:51:09;19.57;;;12.17;;
17059;SDS011;8646;49.716;9.266;2023-04-08T07:54:12;19.07;;;11.77;;
17059;SDS011;8646;49.716;9.266;2023-04-08T07:57:17;19.53;;;11.80;;
17059;SDS011;8646;49.716;9.266;2023-04-08T08:00:20;19.57;;;11.90;;
17059;SDS011;8646;49.716;9.266;2023-04-08T08:03:23;17.30;;;11.03;;
17059;SDS011;8646;49.716;9.266;2023-04-08T08:06:28;18.63;;;11.87;;
17059;SDS011;8646;49.716;9.266;2023-04-08T08:09:33;21.40;;;11.23;;
17059;SDS011;8646;49.716;9.266;2023-04-08T08:12:36;17.83;;;10.90;;
17059;SDS011;8646;49.716;9.266;2023-04-08T08:15:39;17.93;;;10.93;;
17059;SDS011;8646;49.716;9.266;2023-04-08T08:18:42;18.97;;;11.07;;
17059;SDS011;8646;49.716;9.266;2023-04-08T08:21:46;19.60;;;10.90;;
17059;SDS011;8646;49.716;9.266;2023-04-08T08:24:48;16.20;;;9.93;;
17059;SDS011;8646;49.716;9.266;2023-04-08T08:27:56;16.63;;;10.57;;
17059;SDS011;8646;49.716;9.266;2023-04-08T08:30:59;16.33;;;10.47;;
17059;SDS011;8646;49.716;9.266;2023-04-08T08:34:02;14.37;;;9.57;;
17059;SDS011;8646;49.716;9.266;2023-04-08T08:37:07;16.93;;;9.97;;
17059;SDS011;8646;49.716;9.266;2023-04-08T08:40:10;14.57;;;9.63;;
17059;SDS011;8646;49.716;9.266;2023-04-08T08:43:14;16.97;;;10.17;;
17059;SDS011;8646;49.716;9.266;2023-04-08T08:46:17;15.60;;;9.70;;
17059;SDS011;8646;49.716;9.266;2023-04-08T08:49:20;15.20;;;9.77;;
17059;SDS011;8646;49.716;9.266;2023-04-08T08:52:25;15.70;;;10.33;;
17059;SDS011;8646;49.716;9.266;2023-04-08T08:55:29;16.87;;;9.37;;
17059;SDS011;8646;49.716;9.266;2023-04-08T08:58:54;15.63;;;9.53;;
17059;SDS011;8646;49.716;9.266;2023-04-08T09:01:57;15.27;;;9.90;;
17059;SDS011;8646;49.716;9.266;2023-04-08T09:05:02;17.47;;;9.73;;
17059;SDS011;8646;49.716;9.266;2023-04-08T09:08:07;13.00;;;8.13;;
17059;SDS011;8646;49.716;9.266;2023-04-08T09:11:24;13.33;;;8.87;;
17059;SDS011;8646;49.716;9.266;2023-04-08T09:14:27;13.20;;;7.77;;
17059;SDS011;8646;49.716;9.266;2023-04-08T09:17:30;16.60;;;8.50;;
17059;SDS011;8646;49.716;9.266;2023-04-08T09:20:34;10.97;;;7.17;;
17059;SDS011;8646;49.716;9.266;2023-04-08T09:23:41;13.97;;;6.93;;
17059;SDS011;8646;49.716;9.266;2023-04-08T09:26:45;61.70;;;20.27;;
17059;SDS011;8646;49.716;9.266;2023-04-08T09:29:48;15.17;;;8.17;;
17059;SDS011;8646;49.716;9.266;2023-04-08T09:32:51;14.23;;;8.20;;
17059;SDS011;8646;49.716;9.266;2023-04-08T09:35:55;13.83;;;7.50;;
17059;SDS011;8646;49.716;9.266;2023-04-08T09:39:00;12.87;;;6.87;;
17059;SDS011;8646;49.716;9.266;2023-04-08T09:42:02;14.00;;;7.40;;
17059;SDS011;8646;49.716;9.266;2023-04-08T09:45:10;21.80;;;9.13;;
17059;SDS011;8646;49.716;9.266;2023-04-08T09:48:16;11.73;;;6.80;;
17059;SDS011;8646;49.716;9.266;2023-04-08T09:51:19;9.13;;;5.70;;
17059;SDS011;8646;49.716;9.266;2023-04-08T09:54:29;9.80;;;6.00;;
17059;SDS011;8646;49.716;9.266;2023-04-08T09:57:39;7.97;;;5.23;;
17059;SDS011;8646;49.716;9.266;2023-04-08T10:00:45;9.83;;;6.13;;
17059;SDS011;8646;49.716;9.266;2023-04-08T10:03:51;11.37;;;6.47;;
17059;SDS011;8646;49.716;9.266;2023-04-08T10:06:59;10.87;;;6.30;;
17059;SDS011;8646;49.716;9.266;2023-04-08T10:10:08;31.03;;;14.10;;
17059;SDS011;8646;49.716;9.266;2023-04-08T10:13:12;26.93;;;14.53;;
17059;SDS011;8646;49.716;9.266;2023-04-08T10:16:19;12.93;;;7.20;;
17059;SDS011;8646;49.716;9.266;2023-04-08T10:19:37;9.27;;;6.07;;
17059;SDS011;8646;49.716;9.266;2023-04-08T10:22:45;12.27;;;6.13;;
17059;SDS011;8646;49.716;9.266;2023-04-08T10:25:50;8.67;;;5.60;;
17059;SDS011;8646;49.716;9.266;2023-04-08T10:28:53;10.97;;;6.43;;
17059;SDS011;8646;49.716;9.266;2023-04-08T10:31:56;10.80;;;6.33;;
17059;SDS011;8646;49.716;9.266;2023-04-08T10:34:58;13.33;;;6.50;;
17059;SDS011;8646;49.716;9.266;2023-04-08T10:38:02;8.80;;;5.43;;
17059;SDS011;8646;49.716;9.266;2023-04-08T10:41:06;9.70;;;5.30;;
17059;SDS011;8646;49.716;9.266;2023-04-08T10:44:15;9.00;;;5.70;;
17059;SDS011;8646;49.716;9.266;2023-04-08T10:47:23;9.20;;;5.43;;
17059;SDS011;8646;49.716;9.266;2023-04-08T10:50:27;8.97;;;5.03;;
17059;SDS011;8646;49.716;9.266;2023-04-08T10:53:30;8.30;;;5.57;;
17059;SDS011;8646;49.716;9.266;2023-04-08T10:56:36;8.97;;;5.60;;
17059;SDS011;8646;49.716;9.266;2023-04-08T10:59:45;9.60;;;5.77;;
17059;SDS011;8646;49.716;9.266;2023-04-08T11:02:48;8.67;;;5.57;;
17059;SDS011;8646;49.716;9.266;2023-04-08T11:05:51;8.53;;;5.23;;
17059;SDS011;8646;49.716;9.266;2023-04-08T11:08:54;8.10;;;5.53;;
17059;SDS011;8646;49.716;9.266;2023-04-08T11:12:02;9.50;;;5.53;;
17059;SDS011;8646;49.716;9.266;2023-04-08T11:15:06;8.97;;;5.60;;
17059;SDS011;8646;49.716;9.266;2023-04-08T11:18:10;8.60;;;5.13;;
17059;SDS011;8646;49.716;9.266;2023-04-08T11:21:12;8.90;;;5.70;;
17059;SDS011;8646;49.716;9.266;2023-04-08T11:24:16;8.07;;;4.90;;
17059;SDS011;8646;49.716;9.266;2023-04-08T11:27:20;9.13;;;5.10;;
17059;SDS011;8646;49.716;9.266;2023-04-08T11:30:26;9.47;;;5.67;;
17059;SDS011;8646;49.716;9.266;2023-04-08T11:33:31;8.07;;;5.17;;
17059;SDS011;8646;49.716;9.266;2023-04-08T11:36:35;10.07;;;5.10;;
17059;SDS011;8646;49.716;9.266;2023-04-08T11:39:39;7.07;;;4.60;;
17059;SDS011;8646;49.716;9.266;2023-04-08T11:42:45;9.93;;;5.40;;
17059;SDS011;8646;49.716;9.266;2023-04-08T11:45:48;7.60;;;4.70;;
17059;SDS011;8646;49.716;9.266;2023-04-08T11:52:15;6.50;;;4.23;;
17059;SDS011;8646;49.716;9.266;2023-04-08T11:55:22;8.40;;;5.10;;
17059;SDS011;8646;49.716;9.266;2023-04-08T11:58:27;8.63;;;5.10;;
17059;SDS011;8646;49.716;9.266;2023-04-08T12:01:29;8.30;;;5.70;;
17059;SDS011;8646;49.716;9.266;2023-04-08T12:04:33;7.77;;;5.33;;
17059;SDS011;8646;49.716;9.266;2023-04-08T12:07:36;9.70;;;5.63;;
17059;SDS011;8646;49.716;9.266;2023-04-08T12:10:38;8.13;;;5.50;;
17059;SDS011;8646;49.716;9.266;2023-04-08T12:13:43;7.60;;;5.30;;
17059;SDS011;8646;49.716;9.266;2023-04-08T12:16:45;8.17;;;5.30;;
17059;SDS011;8646;49.716;9.266;2023-04-08T12:19:48;10.03;;;6.10;;
17059;SDS011;8646;49.716;9.266;2023-04-08T12:22:51;8.83;;;5.43;;
17059;SDS011;8646;49.716;9.266;2023-04-08T12:25:54;8.17;;;5.20;;
17059;SDS011;8646;49.716;9.266;2023-04-08T12:28:58;8.23;;;5.40;;
17059;SDS011;8646;49.716;9.266;2023-04-08T12:32:01;9.00;;;5.80;;
17059;SDS011;8646;49.716;9.266;2023-04-08T12:35:04;9.37;;;5.63;;
17059;SDS011;8646;49.716;9.266;2023-04-08T12:38:07;8.57;;;5.47;;
17059;SDS011;8646;49.716;9.266;2023-04-08T12:41:10;7.47;;;5.17;;
17059;SDS011;8646;49.716;9.266;2023-04-08T12:44:14;8.83;;;5.37;;
17059;SDS011;8646;49.716;9.266;2023-04-08T12:47:16;10.17;;;4.93;;
17059;SDS011;8646;49.716;9.266;2023-04-08T12:50:20;10.43;;;5.13;;
17059;SDS011;8646;49.716;9.266;2023-04-08T12:53:23;9.50;;;4.60;;
17059;SDS011;8646;49.716;9.266;2023-04-08T12:56:26;12.80;;;5.40;;
17059;SDS011;8646;49.716;9.266;2023-04-08T12:59:30;11.53;;;6.87;;
17059;SDS011;8646;49.716;9.266;2023-04-08T13:02:33;12.07;;;6.47;;
17059;SDS011;8646;49.716;9.266;2023-04-08T13:05:36;9.40;;;5.40;;
17059;SDS011;8646;49.716;9.266;2023-04-08T13:08:44;8.10;;;5.03;;
17059;SDS011;8646;49.716;9.266;2023-04-08T13:11:47;10.90;;;5.13;;
17059;SDS011;8646;49.716;9.266;2023-04-08T13:14:52;10.53;;;4.57;;
17059;SDS011;8646;49.716;9.266;2023-04-08T13:17:55;10.73;;;4.40;;
17059;SDS011;8646;49.716;9.266;2023-04-08T13:20:58;8.43;;;4.30;;
17059;SDS011;8646;49.716;9.266;2023-04-08T13:24:01;7.27;;;4.57;;
17059;SDS011;8646;49.716;9.266;2023-04-08T13:27:04;8.60;;;4.90;;
17059;SDS011;8646;49.716;9.266;2023-04-08T13:30:09;6.20;;;4.53;;
17059;SDS011;8646;49.716;9.266;2023-04-08T13:33:12;8.53;;;4.53;;
17059;SDS011;8646;49.716;9.266;2023-04-08T13:36:15;6.77;;;3.97;;
17059;SDS011;8646;49.716;9.266;2023-04-08T13:39:18;5.43;;;3.43;;
17059;SDS011;8646;49.716;9.266;2023-04-08T13:42:22;6.33;;;3.57;;
17059;SDS011;8646;49.716;9.266;2023-04-08T13:45:27;6.67;;;3.63;;
17059;SDS011;8646;49.716;9.266;2023-04-08T13:48:30;11.20;;;4.17;;
17059;SDS011;8646;49.716;9.266;2023-04-08T13:51:32;11.87;;;5.50;;
17059;SDS011;8646;49.716;9.266;2023-04-08T13:54:35;9.20;;;4.93;;
17059;SDS011;8646;49.716;9.266;2023-04-08T13:57:38;10.80;;;5.70;;
17059;SDS011;8646;49.716;9.266;2023-04-08T14:00:42;8.63;;;4.97;;
17059;SDS011;8646;49.716;9.266;2023-04-08T14:03:45;10.10;;;4.87;;
17059;SDS011;8646;49.716;9.266;2023-04-08T14:06:51;7.13;;;3.27;;
17059;SDS011;8646;49.716;9.266;2023-04-08T14:09:54;5.33;;;3.37;;
17059;SDS011;8646;49.716;9.266;2023-04-08T14:12:57;5.97;;;3.83;;
17059;SDS011;8646;49.716;9.266;2023-04-08T14:16:02;7.77;;;3.10;;
17059;SDS011;8646;49.716;9.266;2023-04-08T14:19:05;4.37;;;3.30;;
17059;SDS011;8646;49.716;9.266;2023-04-08T14:22:07;7.47;;;3.43;;
17059;SDS011;8646;49.716;9.266;2023-04-08T14:25:10;5.50;;;3.57;;
17059;SDS011;8646;49.716;9.266;2023-04-08T14:28:13;4.13;;;2.57;;
17059;SDS011;8646;49.716;9.266;2023-04-08T14:31:17;5.53;;;2.77;;
17059;SDS011;8646;49.716;9.266;2023-04-08T14:34:20;3.73;;;2.60;;
17059;SDS011;8646;49.716;9.266;2023-04-08T14:37:22;4.13;;;2.67;;
17059;SDS011;8646;49.716;9.266;2023-04-08T14:40:25;4.40;;;2.40;;
17059;SDS011;8646;49.716;9.266;2023-04-08T14:43:28;4.97;;;2.60;;
17059;SDS011;8646;49.716;9.266;2023-04-08T14:46:32;6.97;;;3.50;;
17059;SDS011;8646;49.716;9.266;2023-04-08T14:49:35;6.77;;;3.07;;
17059;SDS011;8646;49.716;9.266;2023-04-08T14:52:38;4.90;;;2.50;;
17059;SDS011;8646;49.716;9.266;2023-04-08T14:55:41;4.17;;;2.30;;
17059;SDS011;8646;49.716;9.266;2023-04-08T14:58:43;5.23;;;2.77;;
17059;SDS011;8646;49.716;9.266;2023-04-08T15:01:47;6.00;;;3.70;;
17059;SDS011;8646;49.716;9.266;2023-04-08T15:04:50;5.03;;;3.23;;
17059;SDS011;8646;49.716;9.266;2023-04-08T15:07:54;3.93;;;2.50;;
17059;SDS011;8646;49.716;9.266;2023-04-08T15:10:56;6.90;;;3.87;;
17059;SDS011;8646;49.716;9.266;2023-04-08T15:13:59;8.60;;;3.07;;
17059;SDS011;8646;49.716;9.266;2023-04-08T15:17:03;3.17;;;2.20;;
17059;SDS011;8646;49.716;9.266;2023-04-08T15:20:06;6.93;;;4.00;;
17059;SDS011;8646;49.716;9.266;2023-04-08T15:23:10;3.17;;;1.90;;
17059;SDS011;8646;49.716;9.266;2023-04-08T15:26:13;20.10;;;14.17;;
17059;SDS011;8646;49.716;9.266;2023-04-08T15:29:15;8.80;;;4.33;;
17059;SDS011;8646;49.716;9.266;2023-04-08T15:32:19;4.90;;;2.37;;
17059;SDS011;8646;49.716;9.266;2023-04-08T15:35:22;2.33;;;1.73;;
17059;SDS011;8646;49.716;9.266;2023-04-08T15:38:25;3.87;;;2.23;;
17059;SDS011;8646;49.716;9.266;2023-04-08T15:41:28;3.20;;;1.90;;
17059;SDS011;8646;49.716;9.266;2023-04-08T15:44:32;3.40;;;2.00;;
17059;SDS011;8646;49.716;9.266;2023-04-08T15:47:36;3.50;;;2.10;;
17059;SDS011;8646;49.716;9.266;2023-04-08T15:50:39;3.30;;;2.00;;
17059;SDS011;8646;49.716;9.266;2023-04-08T15:53:42;4.23;;;1.63;;
17059;SDS011;8646;49.716;9.266;2023-04-08T15:56:45;3.50;;;1.83;;
17059;SDS011;8646;49.716;9.266;2023-04-08T15:59:48;6.80;;;2.03;;
17059;SDS011;8646;49.716;9.266;2023-04-08T16:02:52;2.57;;;1.63;;
17059;SDS011;8646;49.716;9.266;2023-04-08T16:05:55;14.40;;;2.60;;
17059;SDS011;8646;49.716;9.266;2023-04-08T16:08:58;5.90;;;1.73;;
17059;SDS011;8646;49.716;9.266;2023-04-08T16:12:01;4.90;;;3.17;;
17059;SDS011;8646;49.716;9.266;2023-04-08T16:15:04;5.00;;;2.80;;
17059;SDS011;8646;49.716;9.266;2023-04-08T16:18:10;7.70;;;4.03;;
17059;SDS011;8646;49.716;9.266;2023-04-08T16:21:13;5.37;;;3.20;;
17059;SDS011;8646;49.716;9.266;2023-04-08T16:24:16;3.57;;;2.30;;
17059;SDS011;8646;49.716;9.266;2023-04-08T16:27:21;2.70;;;2.00;;
17059;SDS011;8646;49.716;9.266;2023-04-08T16:30:23;3.83;;;1.90;;
17059;SDS011;8646;49.716;9.266;2023-04-08T16:33:28;2.90;;;2.00;;
17059;SDS011;8646;49.716;9.266;2023-04-08T16:36:31;6.37;;;1.90;;
17059;SDS011;8646;49.716;9.266;2023-04-08T16:39:33;5.97;;;2.00;;
17059;SDS011;8646;49.716;9.266;2023-04-08T16:42:36;3.63;;;1.80;;
17059;SDS011;8646;49.716;9.266;2023-04-08T16:45:39;3.13;;;2.03;;
17059;SDS011;8646;49.716;9.266;2023-04-08T16:48:43;2.90;;;2.13;;
17059;SDS011;8646;49.716;9.266;2023-04-08T16:51:46;3.93;;;2.23;;
17059;SDS011;8646;49.716;9.266;2023-04-08T16:54:49;6.67;;;3.60;;
17059;SDS011;8646;49.716;9.266;2023-04-08T16:57:52;16.60;;;8.13;;
17059;SDS011;8646;49.716;9.266;2023-04-08T17:00:55;30.93;;;18.13;;
17059;SDS011;8646;49.716;9.266;2023-04-08T17:03:59;10.67;;;6.13;;
17059;SDS011;8646;49.716;9.266;2023-04-08T17:07:03;17.70;;;8.57;;
17059;SDS011;8646;49.716;9.266;2023-04-08T17:10:06;18.57;;;9.50;;
17059;SDS011;8646;49.716;9.266;2023-04-08T17:13:09;12.53;;;7.33;;
17059;SDS011;8646;49.716;9.266;2023-04-08T17:16:16;18.77;;;9.53;;
17059;SDS011;8646;49.716;9.266;2023-04-08T17:19:20;12.00;;;6.30;;
17059;SDS011;8646;49.716;9.266;2023-04-08T17:22:23;4.90;;;3.43;;
17059;SDS011;8646;49.716;9.266;2023-04-08T17:25:26;6.27;;;3.80;;
17059;SDS011;8646;49.716;9.266;2023-04-08T17:28:29;9.63;;;4.50;;
17059;SDS011;8646;49.716;9.266;2023-04-08T17:31:33;5.40;;;3.83;;
17059;SDS011;8646;49.716;9.266;2023-04-08T17:34:37;7.37;;;4.97;;
17059;SDS011;8646;49.716;9.266;2023-04-08T17:37:41;12.57;;;6.60;;
17059;SDS011;8646;49.716;9.266;2023-04-08T17:40:43;6.77;;;3.77;;
17059;SDS011;8646;49.716;9.266;2023-04-08T17:43:47;5.70;;;3.70;;
17059;SDS011;8646;49.716;9.266;2023-04-08T17:46:50;7.20;;;4.07;;
17059;SDS011;8646;49.716;9.266;2023-04-08T17:49:54;9.97;;;6.20;;
17059;SDS011;8646;49.716;9.266;2023-04-08T17:52:57;12.03;;;6.87;;
17059;SDS011;8646;49.716;9.266;2023-04-08T17:56:02;9.17;;;5.50;;
17059;SDS011;8646;49.716;9.266;2023-04-08T17:59:06;8.67;;;5.23;;
17059;SDS011;8646;49.716;9.266;2023-04-08T18:02:08;8.27;;;4.90;;
17059;SDS011;8646;49.716;9.266;2023-04-08T18:05:13;6.73;;;4.17;;
17059;SDS011;8646;49.716;9.266;2023-04-08T18:08:15;11.00;;;4.40;;
17059;SDS011;8646;49.716;9.266;2023-04-08T18:11:19;7.80;;;4.47;;
17059;SDS011;8646;49.716;9.266;2023-04-08T18:14:24;12.43;;;8.20;;
17059;SDS011;8646;49.716;9.266;2023-04-08T18:17:27;13.17;;;8.67;;
17059;SDS011;8646;49.716;9.266;2023-04-08T18:20:34;11.30;;;7.23;;
17059;SDS011;8646;49.716;9.266;2023-04-08T18:23:37;11.13;;;7.07;;
17059;SDS011;8646;49.716;9.266;2023-04-08T18:26:40;7.10;;;4.20;;
17059;SDS011;8646;49.716;9.266;2023-04-08T18:29:45;9.00;;;5.00;;
17059;SDS011;8646;49.716;9.266;2023-04-08T18:32:49;7.97;;;4.83;;
17059;SDS011;8646;49.716;9.266;2023-04-08T18:35:53;10.37;;;4.80;;